createdAt,value
2018-05-29T00:00:33.775Z,19.33
2018-05-29T00:03:01.109Z,20.03
2018-05-29T00:05:28.497Z,20.83
2018-05-29T00:07:55.458Z,19.10
2018-05-29T00:10:22.082Z,18.87
2018-05-29T00:12:48.776Z,18.73
2018-05-29T00:15:15.401Z,19.00
2018-05-29T00:17:42.004Z,19.90
2018-05-29T00:20:08.564Z,20.37
2018-05-29T00:22:35.099Z,18.73
2018-05-29T00:25:01.768Z,19.33
2018-05-29T00:27:28.366Z,18.70
2018-05-29T00:29:54.967Z,18.87
2018-05-29T00:32:21.540Z,20.97
2018-05-29T00:34:48.270Z,19.07
2018-05-29T00:37:14.976Z,20.87
2018-05-29T00:39:42.289Z,19.97
2018-05-29T00:42:08.907Z,19.03
2018-05-29T00:44:35.468Z,19.17
2018-05-29T00:47:02.062Z,20.37
2018-05-29T00:49:28.645Z,19.43
2018-05-29T00:51:55.957Z,20.47
2018-05-29T00:54:22.557Z,20.60
2018-05-29T00:56:49.133Z,23.47
2018-05-29T00:59:15.823Z,21.23
2018-05-29T01:01:42.386Z,20.63
2018-05-29T01:04:09.683Z,21.67
2018-05-29T01:06:36.239Z,22.57
2018-05-29T01:09:02.891Z,22.50
2018-05-29T01:11:29.668Z,20.00
2018-05-29T01:13:56.284Z,21.60
2018-05-29T01:16:23.283Z,22.47
2018-05-29T01:18:50.648Z,21.53
2018-05-29T01:21:17.234Z,21.87
2018-05-29T01:23:44.294Z,22.60
2018-05-29T01:26:10.975Z,21.93
2018-05-29T01:28:37.507Z,28.43
2018-05-29T01:31:04.881Z,24.10
2018-05-29T01:33:31.395Z,23.93
2018-05-29T01:35:57.955Z,21.13
2018-05-29T01:38:25.320Z,21.83
2018-05-29T01:40:51.913Z,22.37
2018-05-29T01:43:18.454Z,22.30
2018-05-29T01:45:45.403Z,23.30
2018-05-29T01:48:12.753Z,22.70
2018-05-29T01:50:39.290Z,22.27
2018-05-29T01:53:05.862Z,22.33
2018-05-29T01:55:32.839Z,22.87
2018-05-29T01:57:59.385Z,22.77
2018-05-29T02:00:25.953Z,23.57
2018-05-29T02:02:53.302Z,22.27
2018-05-29T02:05:19.890Z,23.07
2018-05-29T02:07:46.482Z,22.47
2018-05-29T02:10:13.145Z,22.43
2018-05-29T02:12:39.804Z,23.07
2018-05-29T02:15:06.392Z,25.17
2018-05-29T02:17:33.056Z,22.20
2018-05-29T02:19:59.622Z,23.73
2018-05-29T02:22:26.709Z,23.20
2018-05-29T02:24:53.286Z,24.60
2018-05-29T02:27:19.930Z,23.47
2018-05-29T02:29:46.515Z,22.63
2018-05-29T02:32:13.129Z,23.50
2018-05-29T02:34:39.679Z,22.83
2018-05-29T02:37:06.217Z,23.73
2018-05-29T02:39:32.751Z,22.10
2018-05-29T02:41:59.358Z,24.90
2018-05-29T02:44:25.949Z,23.43
2018-05-29T02:46:52.676Z,26.00
2018-05-29T02:49:19.230Z,23.47
2018-05-29T02:51:46.568Z,23.33
2018-05-29T02:54:13.117Z,22.70
2018-05-29T02:56:40.466Z,24.77
2018-05-29T02:59:07.091Z,22.27
2018-05-29T03:01:33.760Z,22.97
2018-05-29T03:04:00.399Z,24.30
2018-05-29T03:06:27.767Z,21.83
2018-05-29T03:08:54.345Z,26.27
2018-05-29T03:11:20.955Z,26.40
2018-05-29T03:13:48.071Z,22.33
2018-05-29T03:16:14.657Z,25.43
2018-05-29T03:18:41.262Z,25.37
2018-05-29T03:21:07.855Z,23.97
2018-05-29T03:23:34.452Z,25.70
2018-05-29T03:26:01.121Z,22.90
2018-05-29T03:28:27.856Z,24.50
2018-05-29T03:30:54.405Z,23.73
2018-05-29T03:33:20.953Z,25.37
2018-05-29T03:35:48.261Z,25.70
2018-05-29T03:38:14.839Z,25.20
2018-05-29T03:40:41.439Z,24.87
2018-05-29T03:43:08.027Z,25.73
2018-05-29T03:45:35.321Z,24.80
2018-05-29T03:48:01.937Z,25.50
2018-05-29T03:50:28.493Z,23.73
2018-05-29T03:52:55.081Z,25.87
2018-05-29T03:55:22.428Z,25.93
2018-05-29T03:57:50.126Z,26.03
2018-05-29T04:00:16.677Z,24.60
2018-05-29T04:02:43.297Z,25.47
2018-05-29T04:05:09.876Z,24.30
2018-05-29T04:07:36.550Z,24.23
2018-05-29T04:10:03.171Z,27.73
2018-05-29T04:12:30.463Z,26.10
2018-05-29T04:14:57.769Z,23.90
2018-05-29T04:17:24.344Z,25.17
2018-05-29T04:19:51.309Z,25.13
2018-05-29T04:22:17.922Z,24.00
2018-05-29T04:24:45.187Z,24.40
2018-05-29T04:27:11.927Z,23.27
2018-05-29T04:29:38.457Z,22.57
2018-05-29T04:32:04.991Z,23.47
2018-05-29T04:34:31.686Z,21.17
2018-05-29T04:36:58.241Z,21.33
2018-05-29T04:39:24.831Z,22.13
2018-05-29T04:41:51.384Z,22.87
2018-05-29T04:44:18.035Z,21.40
2018-05-29T04:46:45.008Z,20.93
2018-05-29T04:49:12.441Z,20.90
2018-05-29T04:51:38.994Z,21.37
2018-05-29T04:54:07.037Z,21.87
2018-05-29T04:56:33.623Z,19.87
2018-05-29T04:59:00.213Z,19.10
2018-05-29T05:01:26.810Z,20.00
2018-05-29T05:03:53.355Z,19.30
2018-05-29T05:06:20.096Z,19.53
2018-05-29T05:08:46.666Z,19.13
2018-05-29T05:11:13.202Z,20.77
2018-05-29T05:13:40.004Z,18.83
2018-05-29T05:16:06.678Z,18.97
2018-05-29T05:18:33.228Z,18.70
2018-05-29T05:20:59.784Z,18.27
2018-05-29T05:23:26.315Z,17.10
2018-05-29T05:25:52.934Z,18.87
2018-05-29T05:28:19.482Z,17.50
2018-05-29T05:30:46.824Z,17.67
2018-05-29T05:33:13.483Z,17.20
2018-05-29T05:35:40.761Z,17.00
2018-05-29T05:38:07.501Z,16.13
2018-05-29T05:40:34.088Z,20.47
2018-05-29T05:43:00.624Z,17.40
2018-05-29T05:45:27.218Z,16.40
2018-05-29T05:47:53.751Z,17.30
2018-05-29T05:50:20.686Z,16.40
2018-05-29T05:52:47.268Z,16.80
2018-05-29T05:55:13.809Z,14.77
2018-05-29T05:57:40.394Z,15.40
2018-05-29T06:00:06.999Z,14.63
2018-05-29T06:02:34.812Z,20.73
2018-05-29T06:05:01.363Z,14.97
2018-05-29T06:07:29.552Z,16.07
2018-05-29T06:09:56.729Z,13.30
2018-05-29T06:12:24.026Z,14.70
2018-05-29T06:14:50.569Z,14.73
2018-05-29T06:17:17.132Z,15.27
2018-05-29T06:19:45.163Z,14.93
2018-05-29T06:22:11.775Z,14.63
2018-05-29T06:24:39.070Z,15.30
2018-05-29T06:27:05.682Z,15.43
2018-05-29T06:29:32.249Z,14.70
2018-05-29T06:31:59.248Z,14.50
2018-05-29T06:34:25.783Z,13.60
2018-05-29T06:36:52.379Z,14.37
2018-05-29T06:39:18.966Z,13.93
2018-05-29T06:41:45.578Z,14.20
2018-05-29T06:44:12.916Z,14.70
2018-05-29T06:46:40.241Z,13.03
2018-05-29T06:49:06.852Z,14.10
2018-05-29T06:51:33.426Z,13.80
2018-05-29T06:54:00.207Z,14.53
2018-05-29T06:56:27.501Z,17.47
2018-05-29T06:58:54.026Z,13.87
2018-05-29T07:01:20.609Z,12.47
2018-05-29T07:03:47.143Z,13.67
2018-05-29T07:06:13.699Z,14.17
2018-05-29T07:08:41.165Z,16.67
2018-05-29T07:11:08.213Z,13.47
2018-05-29T07:13:34.764Z,14.03
2018-05-29T07:16:01.445Z,13.47
2018-05-29T07:18:28.006Z,13.43
2018-05-29T07:20:55.315Z,13.77
2018-05-29T07:23:21.902Z,15.30
2018-05-29T07:25:49.163Z,14.20
2018-05-29T07:28:15.747Z,14.23
2018-05-29T07:30:42.276Z,13.93
2018-05-29T07:33:09.094Z,14.40
2018-05-29T07:35:35.665Z,13.70
2018-05-29T07:38:02.260Z,13.63
2018-05-29T07:40:28.839Z,14.40
2018-05-29T07:42:56.903Z,13.17
2018-05-29T07:45:23.475Z,13.93
2018-05-29T07:47:50.780Z,13.47
2018-05-29T07:50:17.368Z,13.13
2018-05-29T07:52:43.907Z,13.53
2018-05-29T07:55:11.225Z,12.40
2018-05-29T07:57:38.385Z,15.10
2018-05-29T08:00:04.923Z,14.63
2018-05-29T08:02:31.487Z,13.80
2018-05-29T08:04:58.834Z,13.33
2018-05-29T08:07:26.124Z,13.93
2018-05-29T08:09:52.717Z,15.90
2018-05-29T08:12:19.332Z,13.47
2018-05-29T08:14:46.100Z,13.17
2018-05-29T08:17:13.557Z,13.57
2018-05-29T08:19:41.314Z,13.10
2018-05-29T08:22:08.627Z,12.50
2018-05-29T08:24:35.328Z,13.10
2018-05-29T08:27:01.907Z,12.50
2018-05-29T08:29:28.473Z,11.73
2018-05-29T08:31:55.782Z,11.97
2018-05-29T08:34:22.379Z,12.73
2018-05-29T08:36:50.190Z,12.40
2018-05-29T08:39:16.903Z,11.67
2018-05-29T08:41:43.427Z,11.70
2018-05-29T08:44:10.725Z,13.00
2018-05-29T08:46:37.279Z,11.70
2018-05-29T08:49:03.848Z,12.93
2018-05-29T08:51:30.470Z,12.07
2018-05-29T08:53:57.799Z,10.37
2018-05-29T08:56:24.398Z,10.87
2018-05-29T08:58:51.005Z,10.90
2018-05-29T09:01:18.041Z,10.17
2018-05-29T09:03:45.338Z,10.50
2018-05-29T09:06:11.912Z,10.53
2018-05-29T09:08:38.638Z,10.60
2018-05-29T09:11:06.469Z,9.10
2018-05-29T09:13:33.029Z,12.70
2018-05-29T09:15:59.589Z,11.67
2018-05-29T09:18:26.173Z,10.27
2018-05-29T09:20:52.750Z,14.60
2018-05-29T09:23:19.757Z,9.07
2018-05-29T09:25:46.348Z,10.70
2018-05-29T09:28:13.638Z,9.10
2018-05-29T09:30:40.240Z,8.47
2018-05-29T09:33:07.205Z,8.73
2018-05-29T09:35:33.817Z,10.07
2018-05-29T09:38:00.331Z,9.67
2018-05-29T09:40:27.015Z,9.00
2018-05-29T09:42:54.315Z,9.03
2018-05-29T09:45:21.228Z,7.77
2018-05-29T09:47:47.710Z,7.73
2018-05-29T09:50:14.268Z,8.93
2018-05-29T09:52:40.876Z,8.90
2018-05-29T09:55:07.588Z,9.07
2018-05-29T09:57:34.403Z,8.23
2018-05-29T10:00:01.842Z,8.47
2018-05-29T10:02:29.167Z,8.13
2018-05-29T10:04:55.799Z,8.13
2018-05-29T10:07:22.376Z,8.00
2018-05-29T10:09:48.927Z,10.37
2018-05-29T10:12:16.300Z,8.03
2018-05-29T10:14:42.859Z,8.53
2018-05-29T10:17:09.425Z,9.27
2018-05-29T10:19:36.772Z,9.17
2018-05-29T10:22:03.337Z,9.37
2018-05-29T10:24:31.031Z,8.07
2018-05-29T10:26:57.590Z,9.43
2018-05-29T10:29:24.154Z,8.40
2018-05-29T10:31:50.701Z,8.87
2018-05-29T10:34:17.286Z,9.27
2018-05-29T10:36:43.857Z,10.50
2018-05-29T10:39:10.499Z,8.90
2018-05-29T10:41:37.807Z,10.93
2018-05-29T10:44:04.391Z,9.73
2018-05-29T10:46:31.368Z,9.87
2018-05-29T10:48:57.930Z,9.20
2018-05-29T10:51:24.490Z,10.47
2018-05-29T10:53:51.056Z,10.43
2018-05-29T10:56:18.412Z,8.30
2018-05-29T10:58:45.879Z,7.83
2018-05-29T11:01:12.506Z,9.17
2018-05-29T11:03:39.861Z,8.10
2018-05-29T11:06:06.514Z,8.60
2018-05-29T11:08:33.102Z,8.10
2018-05-29T11:10:59.739Z,7.80
2018-05-29T11:13:26.307Z,7.93
2018-05-29T11:15:53.725Z,11.43
2018-05-29T11:18:21.066Z,7.83
2018-05-29T11:20:48.529Z,7.90
2018-05-29T11:23:15.212Z,6.27
2018-05-29T11:25:41.849Z,9.47
2018-05-29T11:28:08.473Z,6.60
2018-05-29T11:30:35.126Z,7.30
2018-05-29T11:33:02.467Z,6.17
2018-05-29T11:35:29.742Z,6.20
2018-05-29T11:37:56.313Z,6.93
2018-05-29T11:40:22.878Z,7.33
2018-05-29T11:42:49.478Z,4.93
2018-05-29T11:45:16.074Z,5.87
2018-05-29T11:47:43.350Z,6.63
2018-05-29T11:50:09.923Z,6.30
2018-05-29T11:52:36.421Z,6.90
2018-05-29T11:55:03.085Z,9.27
2018-05-29T11:57:29.619Z,6.13
2018-05-29T11:59:56.201Z,7.40
2018-05-29T12:02:23.512Z,8.13
2018-05-29T12:04:50.784Z,7.10
2018-05-29T12:07:17.350Z,6.13
2018-05-29T12:09:43.939Z,6.17
2018-05-29T12:12:23.462Z,6.30
2018-05-29T12:14:50.027Z,7.07
2018-05-29T12:17:17.307Z,6.77
2018-05-29T12:19:43.809Z,6.33
2018-05-29T12:22:10.448Z,6.57
2018-05-29T12:24:37.009Z,9.03
2018-05-29T12:27:03.577Z,6.83
2018-05-29T12:29:30.155Z,7.17
2018-05-29T12:31:56.727Z,7.87
2018-05-29T12:34:24.104Z,6.90
2018-05-29T12:36:51.397Z,7.43
2018-05-29T12:39:17.957Z,7.20
2018-05-29T12:41:45.278Z,6.20
2018-05-29T12:44:11.868Z,7.50
2018-05-29T12:46:38.447Z,10.30
2018-05-29T12:49:05.881Z,9.83
2018-05-29T12:51:32.475Z,6.60
2018-05-29T12:53:58.974Z,13.50
2018-05-29T12:56:26.207Z,14.07
2018-05-29T12:58:52.793Z,6.63
2018-05-29T13:01:20.193Z,7.47
2018-05-29T13:03:46.675Z,7.63
2018-05-29T13:06:13.161Z,11.40
2018-05-29T13:08:39.863Z,7.13
2018-05-29T13:11:06.416Z,6.20
2018-05-29T13:13:32.944Z,6.37
2018-05-29T13:15:59.927Z,6.23
2018-05-29T13:18:26.429Z,7.23
2018-05-29T13:20:52.950Z,8.10
2018-05-29T13:23:19.834Z,6.13
2018-05-29T13:25:46.406Z,5.57
2018-05-29T13:28:12.917Z,6.83
2018-05-29T13:30:40.179Z,5.37
2018-05-29T13:33:07.445Z,5.57
2018-05-29T13:35:33.997Z,7.47
2018-05-29T13:38:00.479Z,9.17
2018-05-29T13:40:26.983Z,9.20
2018-05-29T13:42:53.523Z,9.80
2018-05-29T13:45:20.031Z,7.33
2018-05-29T13:47:46.732Z,7.13
2018-05-29T13:50:13.211Z,7.97
2018-05-29T13:52:39.717Z,5.93
2018-05-29T13:55:07.057Z,8.50
2018-05-29T13:57:34.287Z,6.53
2018-05-29T14:00:00.817Z,6.00
2018-05-29T14:02:27.339Z,6.07
2018-05-29T14:04:53.858Z,5.87
2018-05-29T14:07:20.841Z,6.63
2018-05-29T14:09:47.389Z,6.10
2018-05-29T14:12:13.899Z,6.03
2018-05-29T14:14:40.463Z,6.03
2018-05-29T14:17:07.094Z,8.27
2018-05-29T14:19:34.134Z,6.40
2018-05-29T14:22:00.629Z,6.37
2018-05-29T14:24:27.181Z,7.23
2018-05-29T14:26:53.714Z,8.03
2018-05-29T14:29:20.222Z,6.77
2018-05-29T14:31:46.753Z,6.83
2018-05-29T14:34:13.230Z,7.17
2018-05-29T14:36:39.834Z,6.67
2018-05-29T14:39:06.347Z,6.40
2018-05-29T14:41:33.584Z,7.10
2018-05-29T14:44:00.156Z,7.47
2018-05-29T14:46:27.117Z,6.37
2018-05-29T14:48:53.613Z,6.57
2018-05-29T14:51:20.829Z,8.07
2018-05-29T14:53:47.337Z,6.30
2018-05-29T14:56:13.834Z,7.00
2018-05-29T14:58:41.164Z,5.87
2018-05-29T15:01:07.654Z,7.20
2018-05-29T15:03:34.199Z,7.97
2018-05-29T15:06:00.695Z,6.27
2018-05-29T15:08:27.200Z,9.90
2018-05-29T15:10:53.705Z,9.10
2018-05-29T15:13:20.269Z,6.50
2018-05-29T15:15:46.817Z,6.87
2018-05-29T15:18:14.036Z,6.97
2018-05-29T15:20:41.099Z,5.90
2018-05-29T15:23:07.602Z,7.60
2018-05-29T15:25:34.101Z,7.47
2018-05-29T15:28:00.643Z,9.23
2018-05-29T15:30:27.163Z,10.30
2018-05-29T15:32:54.898Z,7.67
2018-05-29T15:35:21.408Z,6.43
2018-05-29T15:37:47.910Z,8.07
2018-05-29T15:40:14.573Z,7.50
2018-05-29T15:42:41.120Z,10.77
2018-05-29T15:45:07.638Z,6.73
2018-05-29T15:47:34.150Z,9.40
2018-05-29T15:50:00.677Z,7.07
2018-05-29T15:52:27.192Z,7.23
2018-05-29T15:54:54.492Z,7.27
2018-05-29T15:57:20.973Z,8.30
2018-05-29T15:59:47.485Z,7.63
2018-05-29T16:02:13.973Z,9.13
2018-05-29T16:04:41.263Z,7.20
2018-05-29T16:07:07.748Z,7.47
2018-05-29T16:09:35.052Z,7.07
2018-05-29T16:12:01.623Z,7.13
2018-05-29T16:14:28.150Z,6.97
2018-05-29T16:16:54.756Z,8.07
2018-05-29T16:19:21.256Z,8.00
2018-05-29T16:21:47.788Z,7.73
2018-05-29T16:24:15.040Z,8.20
2018-05-29T16:26:41.548Z,8.73
2018-05-29T16:29:08.848Z,8.70
2018-05-29T16:31:35.386Z,8.47
2018-05-29T16:34:02.017Z,8.37
2018-05-29T16:36:28.577Z,8.30
2018-05-29T16:38:55.106Z,9.23
2018-05-29T16:41:21.627Z,10.60
2018-05-29T16:43:48.145Z,9.90
2018-05-29T16:46:14.642Z,9.63
2018-05-29T16:48:41.166Z,9.37
2018-05-29T16:51:07.682Z,9.60
2018-05-29T16:53:34.183Z,10.90
2018-05-29T16:56:00.709Z,11.83
2018-05-29T16:58:27.968Z,9.80
2018-05-29T17:00:55.230Z,10.70
2018-05-29T17:03:21.711Z,11.50
2018-05-29T17:05:48.242Z,9.57
2018-05-29T17:08:14.746Z,10.27
2018-05-29T17:10:41.620Z,8.53
2018-05-29T17:13:08.194Z,8.83
2018-05-29T17:15:35.442Z,10.47
2018-05-29T17:18:02.738Z,10.93
2018-05-29T17:20:29.225Z,8.63
2018-05-29T17:22:56.490Z,10.20
2018-05-29T17:25:22.969Z,8.00
2018-05-29T17:27:49.483Z,8.27
2018-05-29T17:30:16.366Z,8.90
2018-05-29T17:32:42.854Z,9.03
2018-05-29T17:35:09.363Z,11.13
2018-05-29T17:37:36.612Z,9.17
2018-05-29T17:40:03.855Z,8.87
2018-05-29T17:42:30.339Z,9.20
2018-05-29T17:44:56.905Z,9.17
2018-05-29T17:47:23.415Z,9.20
2018-05-29T17:49:49.902Z,9.13
2018-05-29T17:52:17.163Z,8.97
2018-05-29T17:54:43.805Z,11.57
2018-05-29T17:57:11.037Z,10.43
2018-05-29T17:59:37.554Z,11.17
2018-05-29T18:02:05.601Z,9.63
2018-05-29T18:04:32.578Z,8.40
2018-05-29T18:06:59.068Z,8.17
2018-05-29T18:09:25.640Z,10.27
2018-05-29T18:11:52.811Z,9.30
2018-05-29T18:14:19.328Z,9.67
2018-05-29T18:16:47.333Z,9.53
2018-05-29T18:19:13.844Z,9.83
2018-05-29T18:21:40.784Z,12.83
2018-05-29T18:24:07.300Z,10.87
2018-05-29T18:26:33.805Z,12.37
2018-05-29T18:29:00.482Z,11.40
2018-05-29T18:31:26.984Z,11.23
2018-05-29T18:33:53.516Z,10.90
2018-05-29T18:36:20.115Z,9.87
2018-05-29T18:38:46.624Z,11.80
2018-05-29T18:41:15.796Z,9.20
2018-05-29T18:43:42.303Z,10.53
2018-05-29T18:46:08.839Z,9.80
2018-05-29T18:48:35.410Z,14.43
2018-05-29T18:51:01.930Z,13.57
2018-05-29T18:53:28.412Z,18.10
2018-05-29T18:55:55.693Z,15.80
2018-05-29T18:58:22.209Z,14.83
2018-05-29T19:00:49.448Z,12.83
2018-05-29T19:03:16.757Z,12.70
2018-05-29T19:05:43.245Z,13.20
2018-05-29T19:08:10.485Z,12.60
2018-05-29T19:10:37.801Z,13.47
2018-05-29T19:13:04.424Z,14.43
2018-05-29T19:15:30.966Z,10.83
2018-05-29T19:17:57.430Z,11.20
2018-05-29T19:20:23.985Z,11.37
2018-05-29T19:22:50.538Z,10.80
2018-05-29T19:25:16.999Z,11.07
2018-05-29T19:27:43.528Z,11.97
2018-05-29T19:30:10.049Z,10.20
2018-05-29T19:32:36.608Z,11.67
2018-05-29T19:35:03.144Z,9.63
2018-05-29T19:37:29.759Z,12.20
2018-05-29T19:39:56.263Z,11.47
2018-05-29T19:42:23.502Z,10.70
2018-05-29T19:44:50.869Z,9.30
2018-05-29T19:47:17.361Z,12.17
2018-05-29T19:49:44.002Z,9.73
2018-05-29T19:52:10.525Z,10.30
2018-05-29T19:54:37.208Z,12.47
2018-05-29T19:57:03.701Z,9.53
2018-05-29T19:59:30.251Z,10.23
2018-05-29T20:01:56.744Z,12.87
2018-05-29T20:04:23.282Z,13.10
2018-05-29T20:06:49.830Z,36.63
2018-05-29T20:09:17.206Z,9.73
2018-05-29T20:11:43.769Z,11.17
2018-05-29T20:14:10.299Z,10.83
2018-05-29T20:16:38.311Z,8.87
2018-05-29T20:19:05.208Z,10.90
2018-05-29T20:21:31.842Z,10.40
2018-05-29T20:23:58.326Z,9.50
2018-05-29T20:26:24.961Z,10.60
2018-05-29T20:28:51.461Z,13.70
2018-05-29T20:31:18.055Z,9.03
2018-05-29T20:33:44.594Z,10.20
2018-05-29T20:36:12.380Z,11.03
2018-05-29T20:38:38.863Z,10.00
2018-05-29T20:41:06.190Z,13.20
2018-05-29T20:43:33.235Z,9.50
2018-05-29T20:45:59.783Z,11.00
2018-05-29T20:48:27.022Z,8.20
2018-05-29T20:50:53.627Z,8.47
2018-05-29T20:53:20.134Z,9.17
2018-05-29T20:55:46.652Z,12.90
2018-05-29T20:58:13.871Z,10.80
2018-05-29T21:00:40.817Z,10.37
2018-05-29T21:03:07.320Z,11.83
2018-05-29T21:05:33.810Z,10.53
2018-05-29T21:08:01.434Z,8.23
2018-05-29T21:10:27.931Z,9.27
2018-05-29T21:12:54.424Z,9.70
2018-05-29T21:15:20.965Z,10.80
2018-05-29T21:17:48.199Z,11.03
2018-05-29T21:20:14.738Z,9.67
2018-05-29T21:22:41.452Z,12.53
2018-05-29T21:25:07.959Z,10.47
2018-05-29T21:27:34.853Z,12.73
2018-05-29T21:30:01.354Z,18.60
2018-05-29T21:32:27.840Z,16.93
2018-05-29T21:34:55.252Z,21.43
2018-05-29T21:37:21.769Z,25.77
2018-05-29T21:39:48.289Z,15.53
2018-05-29T21:42:14.804Z,16.83
2018-05-29T21:44:42.037Z,18.23
2018-05-29T21:47:08.647Z,19.27
2018-05-29T21:49:35.124Z,16.87
2018-05-29T21:52:02.869Z,19.03
2018-05-29T21:54:29.481Z,19.47
2018-05-29T21:56:55.974Z,16.47
2018-05-29T21:59:22.531Z,17.00
2018-05-29T22:01:49.829Z,15.23
2018-05-29T22:04:16.306Z,18.73
2018-05-29T22:06:42.820Z,17.57
2018-05-29T22:09:10.196Z,16.67
2018-05-29T22:11:36.761Z,15.10
2018-05-29T22:14:03.630Z,13.40
2018-05-29T22:16:30.240Z,20.33
2018-05-29T22:18:56.724Z,13.97
2018-05-29T22:21:23.979Z,16.83
2018-05-29T22:23:51.277Z,15.53
2018-05-29T22:26:18.146Z,12.03
2018-05-29T22:28:44.662Z,12.67
2018-05-29T22:31:11.269Z,13.87
2018-05-29T22:33:37.793Z,17.27
2018-05-29T22:36:04.468Z,14.23
2018-05-29T22:38:31.209Z,12.60
2018-05-29T22:40:57.845Z,11.53
2018-05-29T22:43:24.358Z,14.33
2018-05-29T22:45:50.846Z,16.33
2018-05-29T22:48:17.377Z,14.33
2018-05-29T22:50:43.920Z,16.23
2018-05-29T22:53:11.187Z,22.63
2018-05-29T22:55:37.751Z,15.93
2018-05-29T22:58:04.288Z,17.17
2018-05-29T23:00:30.812Z,15.93
2018-05-29T23:02:58.301Z,15.97
2018-05-29T23:05:24.918Z,15.80
2018-05-29T23:07:51.470Z,13.93
2018-05-29T23:10:18.067Z,16.67
2018-05-29T23:12:44.754Z,13.67
2018-05-29T23:15:11.704Z,15.30
2018-05-29T23:17:38.305Z,15.20
2018-05-29T23:20:04.861Z,19.20
2018-05-29T23:22:31.451Z,14.20
2018-05-29T23:24:58.010Z,17.93
2018-05-29T23:27:24.885Z,16.07
2018-05-29T23:29:52.171Z,14.37
2018-05-29T23:32:18.695Z,14.50
2018-05-29T23:34:45.655Z,13.50
2018-05-29T23:37:12.183Z,16.60
2018-05-29T23:39:38.723Z,18.27
2018-05-29T23:42:05.422Z,16.07
2018-05-29T23:44:32.882Z,21.63
2018-05-29T23:47:00.176Z,15.53
2018-05-29T23:49:26.746Z,21.60
2018-05-29T23:51:53.338Z,16.93
2018-05-29T23:54:19.885Z,14.53
2018-05-29T23:56:46.453Z,15.40
2018-05-29T23:59:12.992Z,15.57
